Time;durP1;ratioP1;P1;durP2;ratioP2;P2;SDS_P1;SDS_P2;PMS_P1;PMS_P2;Temp;Humidity;BMP_temperature;BMP_pressure;BME280_temperature;BME280_humidity;BME280_pressure;Samples;Min_cycle;Max_cycle;Signal;HPM_P1;HPM_P2
2022/06/12 00:00:09;;;;;;;;;;;;;;;;;;8409615;27;27456;-72
2022/06/12 00:04:09;;;;;;;;;;;;;;;;;;8411477;27;27394;-73
2022/06/12 00:08:09;;;;;;;;;;;;;;;;;;8415955;27;27490;-73
2022/06/12 00:12:09;;;;;;;;;;;;;;;;;;8412147;27;27114;-72
2022/06/12 00:16:10;;;;;;;;;;;;;;;;;;8410332;27;27626;-73
2022/06/12 00:20:10;;;;;;;;;;;;;;;;;;8410812;27;27199;-72
2022/06/12 00:24:10;;;;;;;;;;;;;;;;;;8412371;27;27304;-72
2022/06/12 00:28:10;;;;;;;;;;;;;;;;;;8416473;27;29140;-72
2022/06/12 00:32:10;;;;;;;;;;;;;;;;;;8412983;27;27112;-73
2022/06/12 00:36:10;;;;;;;;;;;;;;;;;;8412012;27;27141;-72
2022/06/12 00:40:10;;;;;;;;;;;;;;;;;;8413403;27;27299;-71
2022/06/12 00:44:11;;;;;;;;;;;;;;;;;;8417723;27;27167;-72
2022/06/12 00:48:11;;;;;;;;;;;;;;;;;;8418072;27;27219;-73
2022/06/12 00:52:11;;;;;;;;;;;;;;;;;;8418381;27;46314;-72
2022/06/12 00:56:11;;;;;;;;;;;;;;;;;;8417392;27;27676;-73
2022/06/12 01:00:11;;;;;;;;;;;;;;;;;;8419671;27;27306;-73
2022/06/12 01:08:33;;;;;;;;;;;;;;;;;;8413560;27;27968;-73
2022/06/12 01:12:35;;;;;;;;;;;;;;;;;;8416601;27;27911;-73
2022/06/12 01:16:38;;;;;;;;;;;;;;;;;;8414568;27;27398;-73
2022/06/12 01:20:39;;;;;;;;;;;;;;;;;;8413853;27;28179;-73
2022/06/12 01:24:39;;;;;;;;;;;;;;;;;;8414650;27;28576;-73
2022/06/12 01:28:40;;;;;;;;;;;;;;;;;;8414579;27;27220;-73
2022/06/12 01:32:43;;;;;;;;;;;;;;;;;;8415410;27;27383;-73
2022/06/12 01:36:43;;;;;;;;;;;;;;;;;;8417353;27;28760;-73
2022/06/12 01:40:43;;;;;;;;;;;;;;;;;;8412444;27;27855;-73
2022/06/12 01:44:43;;;;;;;;;;;;;;;;;;8416916;27;28677;-73
2022/06/12 01:48:44;;;;;;;;;;;;;;;;;;8413539;27;27898;-73
2022/06/12 01:52:44;;;;;;;;;;;;;;;;;;8412083;27;27125;-73
2022/06/12 01:56:44;;;;;;;;;;;;;;;;;;8413148;27;28856;-73
2022/06/12 02:00:44;;;;;;;;;;;;;;;;;;8412029;27;27809;-72
2022/06/12 02:04:44;;;;;;;;;;;;;;;;;;8412958;27;27939;-73
2022/06/12 02:08:44;;;;;;;;;;;;;;;;;;8414165;27;27204;-73
2022/06/12 02:17:06;;;;;;;;;;;;;;;;;;8410855;27;27148;-73
2022/06/12 02:21:06;;;;;;;;;;;;;;;;;;8414540;27;28565;-71
2022/06/12 02:25:07;;;;;;;;;;;;;;;;;;8412935;27;27404;-72
2022/06/12 02:29:07;;;;;;;;;;;;;;;;;;8413534;27;27475;-72
2022/06/12 02:33:07;;;;;;;;;;;;;;;;;;8412856;27;27277;-72
2022/06/12 02:37:07;;;;;;;;;;;;;;;;;;8412605;27;27462;-72
2022/06/12 02:41:07;;;;;;;;;;;;;;;;;;8415894;27;28257;-72
2022/06/12 02:45:07;;;;;;;;;;;;;;;;;;8415558;27;27751;-74
2022/06/12 02:49:09;;;;;;;;;;;;;;;;;;8418341;27;28443;-73
2022/06/12 02:53:09;;;;;;;;;;;;;;;;;;8413960;27;27545;-73
2022/06/12 02:57:09;;;;;;;;;;;;;;;;;;8408858;27;27527;-72
2022/06/12 03:01:09;;;;;;;;;;;;;;;;;;8413002;27;27385;-73
2022/06/12 03:05:09;;;;;;;;;;;;;;;;;;8413033;27;28859;-74
2022/06/12 03:09:10;;;;;;;;;;;;;;;;;;8413683;27;27450;-74
2022/06/12 03:13:10;;;;;;;;;;;;;;;;;;8416755;27;28471;-73
2022/06/12 03:17:10;;;;;;;;;;;;;;;;;;8409010;27;27539;-74
2022/06/12 03:21:10;;;;;;;;;;;;;;;;;;8409734;27;27344;-73
2022/06/12 03:25:10;;;;;;;;;;;;;;;;;;8408905;27;27189;-73
2022/06/12 03:29:10;;;;;;;;;;;;;;;;;;8412422;27;28453;-73
2022/06/12 03:33:11;;;;;;;;;;;;;;;;;;8413206;27;27318;-72
2022/06/12 03:37:13;;;;;;;;;;;;;;;;;;8411364;27;27778;-72
2022/06/12 03:41:14;;;;;;;;;;;;;;;;;;8412248;27;27226;-72
2022/06/12 03:45:14;;;;;;;;;;;;;;;;;;8410688;27;27245;-72
2022/06/12 03:49:14;;;;;;;;;;;;;;;;;;8409792;27;27674;-72
2022/06/12 03:53:17;;;;;;;;;;;;;;;;;;8410950;27;28706;-72
2022/06/12 04:01:36;;;;;;;;;;;;;;;;;;8405209;27;27433;-73
2022/06/12 04:05:36;;;;;;;;;;;;;;;;;;8413141;27;28038;-73
2022/06/12 04:09:39;;;;;;;;;;;;;;;;;;8408268;27;27542;-73
2022/06/12 04:13:39;;;;;;;;;;;;;;;;;;8409968;27;29858;-73
2022/06/12 04:17:39;;;;;;;;;;;;;;;;;;8411809;27;28381;-74
2022/06/12 04:21:39;;;;;;;;;;;;;;;;;;8407438;27;28221;-73
2022/06/12 04:25:39;;;;;;;;;;;;;;;;;;8412565;27;28752;-74
2022/06/12 04:29:39;;;;;;;;;;;;;;;;;;8413695;27;29320;-74
2022/06/12 04:33:39;;;;;;;;;;;;;;;;;;8411101;27;27669;-73
2022/06/12 04:37:40;;;;;;;;;;;;;;;;;;8411034;27;27186;-72
2022/06/12 04:41:40;;;;;;;;;;;;;;;;;;8413391;27;28509;-73
2022/06/12 04:45:40;;;;;;;;;;;;;;;;;;8410761;27;27715;-72
2022/06/12 04:49:43;;;;;;;;;;;;;;;;;;8414987;27;28695;-74
2022/06/12 04:53:44;;;;;;;;;;;;;;;;;;8407803;27;27615;-71
2022/06/12 04:57:44;;;;;;;;;;;;;;;;;;8408765;27;27467;-72
2022/06/12 05:01:44;;;;;;;;;;;;;;;;;;8406616;27;27387;-72
2022/06/12 05:05:44;;;;;;;;;;;;;;;;;;8409561;27;27922;-72
2022/06/12 05:09:44;;;;;;;;;;;;;;;;;;8406441;27;27401;-72
2022/06/12 05:13:44;;;;;;;;;;;;;;;;;;8408426;27;27388;-72
2022/06/12 05:17:44;;;;;;;;;;;;;;;;;;8407181;27;27501;-72
2022/06/12 05:21:45;;;;;;;;;;;;;;;;;;8412408;27;27488;-73
2022/06/12 05:25:45;;;;;;;;;;;;;;;;;;8416413;27;27516;-73
2022/06/12 05:29:45;;;;;;;;;;;;;;;;;;8416286;27;28619;-73
2022/06/12 05:33:45;;;;;;;;;;;;;;;;;;8416592;27;27407;-73
2022/06/12 05:37:45;;;;;;;;;;;;;;;;;;8418271;27;27361;-73
2022/06/12 05:41:46;;;;;;;;;;;;;;;;;;8416328;27;27832;-72
2022/06/12 05:45:46;;;;;;;;;;;;;;;;;;8415450;27;27292;-73
2022/06/12 05:49:48;;;;;;;;;;;;;;;;;;8415780;27;27568;-71
2022/06/12 05:53:48;;;;;;;;;;;;;;;;;;8412691;27;28509;-72
2022/06/12 05:57:49;;;;;;;;;;;;;;;;;;8418888;27;28583;-73
2022/06/12 06:01:49;;;;;;;;;;;;;;;;;;8416865;27;27489;-72
2022/06/12 06:05:49;;;;;;;;;;;;;;;;;;8412802;27;27387;-72
2022/06/12 06:09:52;;;;;;;;;;;;;;;;;;8416188;27;27388;-72
2022/06/12 06:13:53;;;;;;;;;;;;;;;;;;8412071;27;27306;-73
2022/06/12 06:17:55;;;;;;;;;;;;;;;;;;8414349;27;46815;-73
2022/06/12 06:21:56;;;;;;;;;;;;;;;;;;8413956;27;27486;-73
2022/06/12 06:25:56;;;;;;;;;;;;;;;;;;8411594;27;27190;-73
2022/06/12 06:29:56;;;;;;;;;;;;;;;;;;8413437;27;27198;-72
2022/06/12 06:33:56;;;;;;;;;;;;;;;;;;8418090;27;28288;-72
2022/06/12 06:37:56;;;;;;;;;;;;;;;;;;8412931;27;27244;-72
2022/06/12 06:41:56;;;;;;;;;;;;;;;;;;8412733;27;27718;-73
2022/06/12 06:46:14;;;;;;;;;;;;;;;;;;8417866;27;27098;-73
2022/06/12 06:50:15;;;;;;;;;;;;;;;;;;8420860;27;27467;-72
2022/06/12 06:54:15;;;;;;;;;;;;;;;;;;8412712;27;27404;-72
2022/06/12 06:58:15;;;;;;;;;;;;;;;;;;8414584;27;27459;-72
2022/06/12 07:02:15;;;;;;;;;;;;;;;;;;8410270;27;27702;-72
2022/06/12 07:06:15;;;;;;;;;;;;;;;;;;8412603;27;27753;-72
2022/06/12 07:10:15;;;;;;;;;;;;;;;;;;8413633;27;27404;-73
2022/06/12 07:14:16;;;;;;;;;;;;;;;;;;8413359;27;27530;-73
2022/06/12 07:18:16;;;;;;;;;;;;;;;;;;8412835;27;27313;-73
2022/06/12 07:22:16;;;;;;;;;;;;;;;;;;8414782;27;27571;-73
2022/06/12 07:26:16;;;;;;;;;;;;;;;;;;8411182;27;28322;-73
2022/06/12 07:30:16;;;;;;;;;;;;;;;;;;8410591;27;27327;-73
2022/06/12 07:34:16;;;;;;;;;;;;;;;;;;8410944;27;27775;-73
2022/06/12 07:38:17;;;;;;;;;;;;;;;;;;8413124;27;27304;-72
2022/06/12 07:42:17;;;;;;;;;;;;;;;;;;8408876;27;27456;-73
2022/06/12 07:46:17;;;;;;;;;;;;;;;;;;8407142;27;27289;-73
2022/06/12 07:50:17;;;;;;;;;;;;;;;;;;8412607;27;28242;-73
2022/06/12 07:54:17;;;;;;;;;;;;;;;;;;8415635;27;27854;-73
2022/06/12 07:58:17;;;;;;;;;;;;;;;;;;8408145;27;27377;-72
2022/06/12 08:02:17;;;;;;;;;;;;;;;;;;8407561;27;27585;-72
2022/06/12 08:06:18;;;;;;;;;;;;;;;;;;8409962;27;27771;-72
2022/06/12 08:10:18;;;;;;;;;;;;;;;;;;8406601;27;27654;-72
2022/06/12 08:14:18;;;;;;;;;;;;;;;;;;8405092;27;28765;-73
2022/06/12 08:18:18;;;;;;;;;;;;;;;;;;8405930;27;27870;-72
2022/06/12 08:22:21;;;;;;;;;;;;;;;;;;8403261;27;28355;-72
2022/06/12 08:26:21;;;;;;;;;;;;;;;;;;8410490;27;28004;-72
2022/06/12 08:30:23;;;;;;;;;;;;;;;;;;8407908;27;27169;-73
2022/06/12 08:34:24;;;;;;;;;;;;;;;;;;8404974;27;28739;-72
2022/06/12 08:38:24;;;;;;;;;;;;;;;;;;8410150;27;27627;-72
2022/06/12 08:42:24;;;;;;;;;;;;;;;;;;8413375;27;29230;-72
2022/06/12 08:46:24;;;;;;;;;;;;;;;;;;8402482;27;27230;-72
2022/06/12 08:50:25;;;;;;;;;;;;;;;;;;8412043;27;28513;-72
2022/06/12 08:54:25;;;;;;;;;;;;;;;;;;8411508;27;27430;-73
2022/06/12 08:58:25;;;;;;;;;;;;;;;;;;8418325;27;28352;-72
2022/06/12 09:02:26;;;;;;;;;;;;;;;;;;8413857;27;27438;-73
2022/06/12 09:06:26;;;;;;;;;;;;;;;;;;8414324;27;27550;-73
2022/06/12 09:10:26;;;;;;;;;;;;;;;;;;8412793;27;27482;-72
2022/06/12 09:14:26;;;;;;;;;;;;;;;;;;8412349;27;28660;-72
2022/06/12 09:18:26;;;;;;;;;;;;;;;;;;8419566;27;27390;-72
2022/06/12 09:22:27;;;;;;;;;;;;;;;;;;8411591;27;28152;-71
2022/06/12 09:26:27;;;;;;;;;;;;;;;;;;8416301;27;28196;-73
2022/06/12 09:30:28;;;;;;;;;;;;;;;;;;8409756;27;28231;-72
2022/06/12 09:34:29;;;;;;;;;;;;;;;;;;8414581;27;27311;-73
2022/06/12 09:38:29;;;;;;;;;;;;;;;;;;8403535;27;28275;-74
2022/06/12 09:42:29;;;;;;;;;;;;;;;;;;8400833;27;28611;-73
2022/06/12 09:46:29;;;;;;;;;;;;;;;;;;8406706;27;27813;-74
2022/06/12 09:50:30;;;;;;;;;;;;;;;;;;8413250;27;27818;-74
2022/06/12 09:54:30;;;;;;;;;;;;;;;;;;8409396;27;27470;-73
2022/06/12 09:58:30;;;;;;;;;;;;;;;;;;8409666;27;27631;-72
2022/06/12 10:02:31;;;;;;;;;;;;;;;;;;8407412;27;27969;-73
2022/06/12 10:06:31;;;;;;;;;;;;;;;;;;8409553;27;27369;-72
2022/06/12 10:10:31;;;;;;;;;;;;;;;;;;8402777;27;27398;-73
2022/06/12 10:14:31;;;;;;;;;;;;;;;;;;8406886;27;27343;-74
2022/06/12 10:18:32;;;;;;;;;;;;;;;;;;8410851;27;27733;-72
2022/06/12 10:22:32;;;;;;;;;;;;;;;;;;8405231;27;27607;-72
2022/06/12 10:26:35;;;;;;;;;;;;;;;;;;8409171;27;27183;-72
2022/06/12 10:30:35;;;;;;;;;;;;;;;;;;8406989;27;27284;-72
2022/06/12 10:34:35;;;;;;;;;;;;;;;;;;8407909;27;28701;-73
2022/06/12 10:38:36;;;;;;;;;;;;;;;;;;8414144;27;28609;-73
2022/06/12 10:42:36;;;;;;;;;;;;;;;;;;8405110;27;28150;-73
2022/06/12 10:46:36;;;;;;;;;;;;;;;;;;8406097;27;28397;-74
2022/06/12 10:50:36;;;;;;;;;;;;;;;;;;8406111;27;27847;-73
2022/06/12 10:54:36;;;;;;;;;;;;;;;;;;8410063;27;28970;-73
2022/06/12 10:58:37;;;;;;;;;;;;;;;;;;8409657;27;28221;-74
2022/06/12 11:02:37;;;;;;;;;;;;;;;;;;8403969;27;28320;-74
2022/06/12 11:06:37;;;;;;;;;;;;;;;;;;8407213;27;29225;-74
2022/06/12 11:10:38;;;;;;;;;;;;;;;;;;8412025;27;29622;-74
2022/06/12 11:14:39;;;;;;;;;;;;;;;;;;8402260;27;28063;-74
2022/06/12 11:18:41;;;;;;;;;;;;;;;;;;8408309;27;27534;-73
2022/06/12 11:22:44;;;;;;;;;;;;;;;;;;8404475;27;28708;-73
2022/06/12 11:26:46;;;;;;;;;;;;;;;;;;8412590;27;28076;-73
2022/06/12 11:30:46;;;;;;;;;;;;;;;;;;8407084;27;27700;-72
2022/06/12 11:34:49;;;;;;;;;;;;;;;;;;8409954;27;28488;-72
2022/06/12 11:38:50;;;;;;;;;;;;;;;;;;8407158;27;28611;-73
2022/06/12 11:42:51;;;;;;;;;;;;;;;;;;8405512;27;27235;-73
2022/06/12 11:46:51;;;;;;;;;;;;;;;;;;8413573;27;28326;-74
2022/06/12 11:50:51;;;;;;;;;;;;;;;;;;8406530;27;27337;-74
2022/06/12 11:54:51;;;;;;;;;;;;;;;;;;8402279;27;27989;-74
2022/06/12 11:58:51;;;;;;;;;;;;;;;;;;8406996;27;27576;-73
2022/06/12 12:02:54;;;;;;;;;;;;;;;;;;8401546;27;27588;-74
2022/06/12 12:06:54;;;;;;;;;;;;;;;;;;8404509;27;27357;-73
2022/06/12 12:10:54;;;;;;;;;;;;;;;;;;8405476;27;27361;-73
2022/06/12 12:14:55;;;;;;;;;;;;;;;;;;8402760;27;28180;-73
2022/06/12 12:18:55;;;;;;;;;;;;;;;;;;8403212;27;27399;-73
2022/06/12 12:22:55;;;;;;;;;;;;;;;;;;8404364;27;28428;-74
2022/06/12 12:26:56;;;;;;;;;;;;;;;;;;8408590;27;28242;-74
2022/06/12 12:30:56;;;;;;;;;;;;;;;;;;8409377;27;27894;-74
2022/06/12 12:34:58;;;;;;;;;;;;;;;;;;8410772;27;29125;-75
2022/06/12 12:43:17;;;;;;;;;;;;;;;;;;8409676;27;27497;-73
2022/06/12 12:47:17;;;;;;;;;;;;;;;;;;8408672;27;27431;-74
2022/06/12 12:51:18;;;;;;;;;;;;;;;;;;8404205;27;28213;-74
2022/06/12 12:55:18;;;;;;;;;;;;;;;;;;8408247;27;28262;-74
2022/06/12 12:59:20;;;;;;;;;;;;;;;;;;8414457;27;27481;-74
2022/06/12 13:03:20;;;;;;;;;;;;;;;;;;8408180;27;28970;-74
2022/06/12 13:07:20;;;;;;;;;;;;;;;;;;8408879;27;27687;-74
2022/06/12 13:11:23;;;;;;;;;;;;;;;;;;8410857;27;27237;-74
2022/06/12 13:15:23;;;;;;;;;;;;;;;;;;8410176;27;27574;-73
2022/06/12 13:19:23;;;;;;;;;;;;;;;;;;8417139;27;28412;-73
2022/06/12 13:23:23;;;;;;;;;;;;;;;;;;8407442;27;27625;-74
2022/06/12 13:27:23;;;;;;;;;;;;;;;;;;8409207;27;28314;-73
2022/06/12 13:31:24;;;;;;;;;;;;;;;;;;8413112;27;27325;-74
2022/06/12 13:35:29;;;;;;;;;;;;;;;;;;8407527;27;28156;-74
2022/06/12 13:39:29;;;;;;;;;;;;;;;;;;8409475;27;28088;-73
2022/06/12 13:43:29;;;;;;;;;;;;;;;;;;8415298;27;27508;-73
2022/06/12 13:47:30;;;;;;;;;;;;;;;;;;8417855;27;29509;-75
2022/06/12 13:51:30;;;;;;;;;;;;;;;;;;8405144;27;27743;-75
2022/06/12 13:55:30;;;;;;;;;;;;;;;;;;8403870;27;27174;-75
2022/06/12 13:59:30;;;;;;;;;;;;;;;;;;8407998;27;29107;-75
2022/06/12 14:03:33;;;;;;;;;;;;;;;;;;8408173;27;28680;-74
2022/06/12 14:07:33;;;;;;;;;;;;;;;;;;8411064;27;28326;-74
2022/06/12 14:11:33;;;;;;;;;;;;;;;;;;8405079;27;27132;-73
2022/06/12 14:15:33;;;;;;;;;;;;;;;;;;8401169;27;28357;-74
2022/06/12 14:19:33;;;;;;;;;;;;;;;;;;8405321;27;28300;-74
2022/06/12 14:23:34;;;;;;;;;;;;;;;;;;8396678;27;28128;-74
2022/06/12 14:27:34;;;;;;;;;;;;;;;;;;8406811;27;28064;-73
2022/06/12 14:31:34;;;;;;;;;;;;;;;;;;8406741;27;27736;-74
2022/06/12 14:35:34;;;;;;;;;;;;;;;;;;8405810;27;27605;-73
2022/06/12 14:39:34;;;;;;;;;;;;;;;;;;8405401;27;27492;-72
2022/06/12 14:43:35;;;;;;;;;;;;;;;;;;8404838;27;27396;-74
2022/06/12 14:47:35;;;;;;;;;;;;;;;;;;8406222;27;28037;-74
2022/06/12 14:51:35;;;;;;;;;;;;;;;;;;8407878;27;28336;-74
2022/06/12 14:55:36;;;;;;;;;;;;;;;;;;8405920;27;28396;-74
2022/06/12 14:59:36;;;;;;;;;;;;;;;;;;8401020;27;27523;-73
2022/06/12 15:03:36;;;;;;;;;;;;;;;;;;8403097;27;28374;-73
2022/06/12 15:07:39;;;;;;;;;;;;;;;;;;8405234;27;28280;-73
2022/06/12 15:11:39;;;;;;;;;;;;;;;;;;8403557;27;27533;-73
2022/06/12 15:15:40;;;;;;;;;;;;;;;;;;8409383;27;28439;-72
2022/06/12 15:19:42;;;;;;;;;;;;;;;;;;8410052;27;28535;-72
2022/06/12 15:23:42;;;;;;;;;;;;;;;;;;8403151;27;28396;-73
2022/06/12 15:32:02;;;;;;;;;;;;;;;;;;8409904;27;27451;-72
2022/06/12 15:36:04;;;;;;;;;;;;;;;;;;8403836;27;47079;-73
2022/06/12 15:40:04;;;;;;;;;;;;;;;;;;8399972;27;27381;-71
2022/06/12 15:44:05;;;;;;;;;;;;;;;;;;8404911;27;28480;-73
2022/06/12 15:48:06;;;;;;;;;;;;;;;;;;8406045;27;28627;-73
2022/06/12 15:52:07;;;;;;;;;;;;;;;;;;8402403;27;27368;-73
2022/06/12 15:56:07;;;;;;;;;;;;;;;;;;8407096;27;27313;-73
2022/06/12 16:00:08;;;;;;;;;;;;;;;;;;8401362;27;27541;-73
2022/06/12 16:04:09;;;;;;;;;;;;;;;;;;8406765;27;28384;-73
2022/06/12 16:08:09;;;;;;;;;;;;;;;;;;8402907;27;27696;-74
2022/06/12 16:12:11;;;;;;;;;;;;;;;;;;8402905;27;29413;-74
2022/06/12 16:16:12;;;;;;;;;;;;;;;;;;8404153;27;27340;-72
2022/06/12 16:20:12;;;;;;;;;;;;;;;;;;8400393;27;27223;-74
2022/06/12 16:24:12;;;;;;;;;;;;;;;;;;8404032;27;28267;-74
2022/06/12 16:28:12;;;;;;;;;;;;;;;;;;8404404;27;28599;-74
2022/06/12 16:32:12;;;;;;;;;;;;;;;;;;8399939;27;27145;-75
2022/06/12 16:36:14;;;;;;;;;;;;;;;;;;8402168;27;28245;-72
2022/06/12 16:40:14;;;;;;;;;;;;;;;;;;8401890;27;27678;-74
2022/06/12 16:44:14;;;;;;;;;;;;;;;;;;8401347;27;27671;-73
2022/06/12 16:48:15;;;;;;;;;;;;;;;;;;8402901;27;28635;-73
2022/06/12 16:52:15;;;;;;;;;;;;;;;;;;8403669;27;29481;-73
2022/06/12 16:56:15;;;;;;;;;;;;;;;;;;8402287;27;27501;-73
2022/06/12 17:00:16;;;;;;;;;;;;;;;;;;8405507;27;27451;-73
2022/06/12 17:04:17;;;;;;;;;;;;;;;;;;8396938;27;27460;-74
2022/06/12 17:08:17;;;;;;;;;;;;;;;;;;8402740;27;28454;-73
2022/06/12 17:12:17;;;;;;;;;;;;;;;;;;8394282;27;27841;-73
2022/06/12 17:16:17;;;;;;;;;;;;;;;;;;8405158;27;27776;-73
2022/06/12 17:24:36;;;;;;;;;;;;;;;;;;8408179;27;28131;-74
2022/06/12 17:28:36;;;;;;;;;;;;;;;;;;8407617;27;27437;-72
2022/06/12 17:32:36;;;;;;;;;;;;;;;;;;8409271;27;27899;-73
2022/06/12 17:36:37;;;;;;;;;;;;;;;;;;8412812;27;27749;-73
2022/06/12 17:40:37;;;;;;;;;;;;;;;;;;8412448;27;28380;-72
2022/06/12 17:44:37;;;;;;;;;;;;;;;;;;8410274;27;27220;-72
2022/06/12 17:48:37;;;;;;;;;;;;;;;;;;8413969;27;27810;-72
2022/06/12 17:52:37;;;;;;;;;;;;;;;;;;8411169;27;28324;-72
2022/06/12 17:56:38;;;;;;;;;;;;;;;;;;8412704;27;28450;-73
2022/06/12 18:00:38;;;;;;;;;;;;;;;;;;8410010;27;28679;-73
2022/06/12 18:04:41;;;;;;;;;;;;;;;;;;8408919;27;28347;-72
2022/06/12 18:08:41;;;;;;;;;;;;;;;;;;8414016;27;27824;-72
2022/06/12 18:12:42;;;;;;;;;;;;;;;;;;8407670;27;27978;-73
2022/06/12 18:21:01;;;;;;;;;;;;;;;;;;8406978;27;27703;-73
2022/06/12 18:25:01;;;;;;;;;;;;;;;;;;8399414;27;27485;-73
2022/06/12 18:29:01;;;;;;;;;;;;;;;;;;8413343;27;27360;-72
2022/06/12 18:33:02;;;;;;;;;;;;;;;;;;8405343;27;28497;-72
2022/06/12 18:37:02;;;;;;;;;;;;;;;;;;8402828;27;27712;-73
2022/06/12 18:41:02;;;;;;;;;;;;;;;;;;8403310;27;27526;-73
2022/06/12 18:45:03;;;;;;;;;;;;;;;;;;8401871;27;28027;-72
2022/06/12 18:49:03;;;;;;;;;;;;;;;;;;8407353;27;27570;-72
2022/06/12 18:53:03;;;;;;;;;;;;;;;;;;8407356;27;29443;-72
2022/06/12 18:57:03;;;;;;;;;;;;;;;;;;8407409;27;27319;-72
2022/06/12 19:01:03;;;;;;;;;;;;;;;;;;8410199;27;28716;-72
2022/06/12 19:05:04;;;;;;;;;;;;;;;;;;8404995;27;27530;-72
2022/06/12 19:09:04;;;;;;;;;;;;;;;;;;8407124;27;27620;-72
2022/06/12 19:13:04;;;;;;;;;;;;;;;;;;8410512;27;28307;-72
2022/06/12 19:17:04;;;;;;;;;;;;;;;;;;8411999;27;28448;-72
2022/06/12 19:21:05;;;;;;;;;;;;;;;;;;8405490;27;27810;-73
2022/06/12 19:25:05;;;;;;;;;;;;;;;;;;8406050;27;27223;-72
2022/06/12 19:29:07;;;;;;;;;;;;;;;;;;8403863;27;27542;-73
2022/06/12 19:33:07;;;;;;;;;;;;;;;;;;8398905;27;29569;-73
2022/06/12 19:37:07;;;;;;;;;;;;;;;;;;8400409;27;27544;-71
2022/06/12 19:41:07;;;;;;;;;;;;;;;;;;8392323;27;27317;-72
2022/06/12 19:45:10;;;;;;;;;;;;;;;;;;8400480;27;27385;-72
2022/06/12 19:49:11;;;;;;;;;;;;;;;;;;8402406;27;27201;-72
2022/06/12 19:53:11;;;;;;;;;;;;;;;;;;8402875;27;28132;-72
2022/06/12 19:57:11;;;;;;;;;;;;;;;;;;8402723;27;27628;-72
2022/06/12 20:01:11;;;;;;;;;;;;;;;;;;8404602;27;28593;-71
2022/06/12 20:09:30;;;;;;;;;;;;;;;;;;8403505;27;27269;-72
2022/06/12 20:13:31;;;;;;;;;;;;;;;;;;8400472;27;27699;-72
2022/06/12 20:17:31;;;;;;;;;;;;;;;;;;8402513;27;27513;-71
2022/06/12 20:21:31;;;;;;;;;;;;;;;;;;8404246;27;27360;-71
2022/06/12 20:25:33;;;;;;;;;;;;;;;;;;8405833;27;28184;-71
2022/06/12 20:29:34;;;;;;;;;;;;;;;;;;8403855;27;28209;-72
2022/06/12 20:33:34;;;;;;;;;;;;;;;;;;8402928;27;27969;-72
2022/06/12 20:37:34;;;;;;;;;;;;;;;;;;8403441;27;27427;-72
2022/06/12 20:41:37;;;;;;;;;;;;;;;;;;8405368;27;28389;-72
2022/06/12 20:45:38;;;;;;;;;;;;;;;;;;8405097;27;27510;-72
2022/06/12 20:49:38;;;;;;;;;;;;;;;;;;8401492;27;28122;-72
2022/06/12 20:53:38;;;;;;;;;;;;;;;;;;8401286;27;28076;-72
2022/06/12 20:57:38;;;;;;;;;;;;;;;;;;8405443;27;27283;-72
2022/06/12 21:01:39;;;;;;;;;;;;;;;;;;8406080;27;27823;-72
2022/06/12 21:05:42;;;;;;;;;;;;;;;;;;8405837;27;27216;-73
2022/06/12 21:09:44;;;;;;;;;;;;;;;;;;8407708;27;27312;-73
2022/06/12 21:13:46;;;;;;;;;;;;;;;;;;8405739;27;28572;-72
2022/06/12 21:17:50;;;;;;;;;;;;;;;;;;8404262;27;27435;-72
2022/06/12 21:21:50;;;;;;;;;;;;;;;;;;8403992;27;27414;-73
2022/06/12 21:25:51;;;;;;;;;;;;;;;;;;8402553;27;29178;-73
2022/06/12 21:29:51;;;;;;;;;;;;;;;;;;8407504;27;27581;-72
2022/06/12 21:33:51;;;;;;;;;;;;;;;;;;8408774;27;27381;-73
2022/06/12 21:37:51;;;;;;;;;;;;;;;;;;8410238;27;27990;-72
2022/06/12 21:41:52;;;;;;;;;;;;;;;;;;8413406;27;27794;-72
2022/06/12 21:45:52;;;;;;;;;;;;;;;;;;8413126;27;27303;-72
2022/06/12 21:49:52;;;;;;;;;;;;;;;;;;8408573;27;27595;-72
2022/06/12 21:58:11;;;;;;;;;;;;;;;;;;8413317;27;27464;-72
2022/06/12 22:02:17;;;;;;;;;;;;;;;;;;8414617;27;28474;-73
2022/06/12 22:06:17;;;;;;;;;;;;;;;;;;8409676;27;28988;-72
2022/06/12 22:10:17;;;;;;;;;;;;;;;;;;8412092;27;29469;-73
2022/06/12 22:14:18;;;;;;;;;;;;;;;;;;8408628;27;27145;-72
2022/06/12 22:18:18;;;;;;;;;;;;;;;;;;8412793;27;27235;-72
2022/06/12 22:22:18;;;;;;;;;;;;;;;;;;8410371;27;28226;-71
2022/06/12 22:26:18;;;;;;;;;;;;;;;;;;8413765;27;28411;-72
2022/06/12 22:30:21;;;;;;;;;;;;;;;;;;8413967;27;27336;-72
2022/06/12 22:34:23;;;;;;;;;;;;;;;;;;8416720;27;27848;-71
2022/06/12 22:38:23;;;;;;;;;;;;;;;;;;8420133;27;28670;-72
2022/06/12 22:42:24;;;;;;;;;;;;;;;;;;8414072;27;27498;-72
2022/06/12 22:46:24;;;;;;;;;;;;;;;;;;8411669;27;27477;-72
2022/06/12 22:50:24;;;;;;;;;;;;;;;;;;8413897;27;28262;-72
2022/06/12 22:54:24;;;;;;;;;;;;;;;;;;8417760;27;28646;-72
2022/06/12 22:58:24;;;;;;;;;;;;;;;;;;8412238;27;28285;-72
2022/06/12 23:02:24;;;;;;;;;;;;;;;;;;8411630;27;29354;-72
2022/06/12 23:06:24;;;;;;;;;;;;;;;;;;8410927;27;27669;-72
2022/06/12 23:10:25;;;;;;;;;;;;;;;;;;8412254;27;27401;-72
2022/06/12 23:14:25;;;;;;;;;;;;;;;;;;8406951;27;28616;-72
2022/06/12 23:18:25;;;;;;;;;;;;;;;;;;8414889;27;28270;-72
2022/06/12 23:22:25;;;;;;;;;;;;;;;;;;8407871;27;28002;-72
2022/06/12 23:26:25;;;;;;;;;;;;;;;;;;8410420;27;28650;-72
2022/06/12 23:30:25;;;;;;;;;;;;;;;;;;8409878;27;28712;-72
2022/06/12 23:34:25;;;;;;;;;;;;;;;;;;8408825;27;28050;-72
2022/06/12 23:38:26;;;;;;;;;;;;;;;;;;8407677;27;27647;-73
2022/06/12 23:42:26;;;;;;;;;;;;;;;;;;8411846;27;27396;-72
2022/06/12 23:46:26;;;;;;;;;;;;;;;;;;8409593;27;28379;-72
2022/06/12 23:50:26;;;;;;;;;;;;;;;;;;8409090;27;27444;-73
2022/06/12 23:54:26;;;;;;;;;;;;;;;;;;8407337;27;28356;-72
2022/06/12 23:58:26;;;;;;;;;;;;;;;;;;8407591;27;27276;-72
